sensor_id;sensor_type;location;lat;lon;timestamp;P1;durP1;ratioP1;P2;durP2;ratioP2
63157;SDS011;49381;49.338;8.794;2023-03-07T00:00:56;19.13;;;9.80;;
63157;SDS011;49381;49.338;8.794;2023-03-07T00:02:56;24.73;;;11.40;;
63157;SDS011;49381;49.338;8.794;2023-03-07T00:04:57;21.63;;;10.77;;
63157;SDS011;49381;49.338;8.794;2023-03-07T00:06:57;24.35;;;12.07;;
63157;SDS011;49381;49.338;8.794;2023-03-07T00:08:58;22.40;;;10.85;;
63157;SDS011;49381;49.338;8.794;2023-03-07T00:11:00;23.38;;;10.80;;
63157;SDS011;49381;49.338;8.794;2023-03-07T00:13:02;20.45;;;10.07;;
63157;SDS011;49381;49.338;8.794;2023-03-07T00:15:03;22.13;;;11.10;;
63157;SDS011;49381;49.338;8.794;2023-03-07T00:17:03;19.23;;;9.60;;
63157;SDS011;49381;49.338;8.794;2023-03-07T00:19:04;20.95;;;10.77;;
63157;SDS011;49381;49.338;8.794;2023-03-07T00:21:05;21.27;;;10.88;;
63157;SDS011;49381;49.338;8.794;2023-03-07T00:23:06;21.77;;;11.35;;
63157;SDS011;49381;49.338;8.794;2023-03-07T00:25:07;24.73;;;11.75;;
63157;SDS011;49381;49.338;8.794;2023-03-07T00:27:08;24.33;;;11.63;;
63157;SDS011;49381;49.338;8.794;2023-03-07T00:29:09;22.07;;;10.50;;
63157;SDS011;49381;49.338;8.794;2023-03-07T00:31:10;22.13;;;10.57;;
63157;SDS011;49381;49.338;8.794;2023-03-07T00:33:10;21.00;;;9.77;;
63157;SDS011;49381;49.338;8.794;2023-03-07T00:35:11;22.83;;;11.05;;
63157;SDS011;49381;49.338;8.794;2023-03-07T00:37:11;21.40;;;11.17;;
63157;SDS011;49381;49.338;8.794;2023-03-07T00:39:11;20.63;;;10.57;;
63157;SDS011;49381;49.338;8.794;2023-03-07T00:41:12;21.97;;;11.27;;
63157;SDS011;49381;49.338;8.794;2023-03-07T00:43:14;19.73;;;10.50;;
63157;SDS011;49381;49.338;8.794;2023-03-07T00:45:16;22.92;;;10.48;;
63157;SDS011;49381;49.338;8.794;2023-03-07T00:47:16;24.13;;;11.38;;
63157;SDS011;49381;49.338;8.794;2023-03-07T00:49:17;23.75;;;10.93;;
63157;SDS011;49381;49.338;8.794;2023-03-07T00:51:17;22.35;;;10.98;;
63157;SDS011;49381;49.338;8.794;2023-03-07T00:53:19;24.92;;;11.50;;
63157;SDS011;49381;49.338;8.794;2023-03-07T00:55:20;23.60;;;11.25;;
63157;SDS011;49381;49.338;8.794;2023-03-07T00:57:20;22.85;;;11.27;;
63157;SDS011;49381;49.338;8.794;2023-03-07T00:59:21;21.75;;;10.68;;
63157;SDS011;49381;49.338;8.794;2023-03-07T01:01:23;24.30;;;10.93;;
63157;SDS011;49381;49.338;8.794;2023-03-07T01:03:24;21.90;;;10.93;;
63157;SDS011;49381;49.338;8.794;2023-03-07T01:05:25;19.75;;;10.18;;
63157;SDS011;49381;49.338;8.794;2023-03-07T01:07:25;21.85;;;11.20;;
63157;SDS011;49381;49.338;8.794;2023-03-07T01:09:25;23.75;;;10.63;;
63157;SDS011;49381;49.338;8.794;2023-03-07T01:11:26;21.48;;;11.90;;
63157;SDS011;49381;49.338;8.794;2023-03-07T01:13:27;21.88;;;10.68;;
63157;SDS011;49381;49.338;8.794;2023-03-07T01:15:28;22.08;;;11.90;;
63157;SDS011;49381;49.338;8.794;2023-03-07T01:17:30;22.45;;;11.73;;
63157;SDS011;49381;49.338;8.794;2023-03-07T01:19:31;24.95;;;12.20;;
63157;SDS011;49381;49.338;8.794;2023-03-07T01:21:32;24.17;;;11.63;;
63157;SDS011;49381;49.338;8.794;2023-03-07T01:23:34;23.75;;;12.10;;
63157;SDS011;49381;49.338;8.794;2023-03-07T01:25:37;24.25;;;11.95;;
63157;SDS011;49381;49.338;8.794;2023-03-07T01:27:38;23.70;;;12.48;;
63157;SDS011;49381;49.338;8.794;2023-03-07T01:29:39;23.70;;;12.15;;
63157;SDS011;49381;49.338;8.794;2023-03-07T01:31:39;23.38;;;11.30;;
63157;SDS011;49381;49.338;8.794;2023-03-07T01:33:41;22.00;;;11.68;;
63157;SDS011;49381;49.338;8.794;2023-03-07T01:35:41;26.13;;;11.80;;
63157;SDS011;49381;49.338;8.794;2023-03-07T01:37:42;25.37;;;12.53;;
63157;SDS011;49381;49.338;8.794;2023-03-07T01:39:42;24.08;;;11.65;;
63157;SDS011;49381;49.338;8.794;2023-03-07T01:41:43;22.80;;;11.82;;
63157;SDS011;49381;49.338;8.794;2023-03-07T01:43:43;24.90;;;11.23;;
63157;SDS011;49381;49.338;8.794;2023-03-07T01:48:19;26.27;;;11.77;;
63157;SDS011;49381;49.338;8.794;2023-03-07T01:50:21;23.40;;;11.45;;
63157;SDS011;49381;49.338;8.794;2023-03-07T01:52:22;27.15;;;13.70;;
63157;SDS011;49381;49.338;8.794;2023-03-07T01:54:25;24.38;;;12.10;;
63157;SDS011;49381;49.338;8.794;2023-03-07T01:56:26;26.85;;;13.05;;
63157;SDS011;49381;49.338;8.794;2023-03-07T01:58:27;27.02;;;13.35;;
63157;SDS011;49381;49.338;8.794;2023-03-07T02:00:27;24.60;;;11.90;;
63157;SDS011;49381;49.338;8.794;2023-03-07T02:02:28;24.15;;;11.90;;
63157;SDS011;49381;49.338;8.794;2023-03-07T02:04:29;25.02;;;11.90;;
63157;SDS011;49381;49.338;8.794;2023-03-07T02:06:35;23.00;;;11.32;;
63157;SDS011;49381;49.338;8.794;2023-03-07T02:08:37;26.67;;;12.45;;
63157;SDS011;49381;49.338;8.794;2023-03-07T02:10:38;24.67;;;11.93;;
63157;SDS011;49381;49.338;8.794;2023-03-07T02:12:40;24.23;;;12.23;;
63157;SDS011;49381;49.338;8.794;2023-03-07T02:14:41;26.80;;;12.90;;
63157;SDS011;49381;49.338;8.794;2023-03-07T02:16:43;24.98;;;12.38;;
63157;SDS011;49381;49.338;8.794;2023-03-07T02:18:45;24.95;;;12.68;;
63157;SDS011;49381;49.338;8.794;2023-03-07T02:20:48;25.48;;;11.88;;
63157;SDS011;49381;49.338;8.794;2023-03-07T02:22:59;26.15;;;12.35;;
63157;SDS011;49381;49.338;8.794;2023-03-07T02:25:01;23.20;;;11.23;;
63157;SDS011;49381;49.338;8.794;2023-03-07T02:27:05;22.23;;;11.85;;
63157;SDS011;49381;49.338;8.794;2023-03-07T02:29:06;22.55;;;11.68;;
63157;SDS011;49381;49.338;8.794;2023-03-07T02:31:07;24.30;;;11.27;;
63157;SDS011;49381;49.338;8.794;2023-03-07T02:33:07;26.48;;;11.15;;
63157;SDS011;49381;49.338;8.794;2023-03-07T02:35:10;25.15;;;12.80;;
63157;SDS011;49381;49.338;8.794;2023-03-07T02:37:14;24.65;;;11.63;;
63157;SDS011;49381;49.338;8.794;2023-03-07T02:39:17;24.83;;;12.23;;
63157;SDS011;49381;49.338;8.794;2023-03-07T02:41:20;24.25;;;10.93;;
63157;SDS011;49381;49.338;8.794;2023-03-07T02:43:24;23.67;;;12.27;;
63157;SDS011;49381;49.338;8.794;2023-03-07T02:45:24;23.85;;;11.95;;
63157;SDS011;49381;49.338;8.794;2023-03-07T02:47:25;26.45;;;12.52;;
63157;SDS011;49381;49.338;8.794;2023-03-07T02:49:26;25.60;;;12.60;;
63157;SDS011;49381;49.338;8.794;2023-03-07T02:51:26;27.37;;;12.47;;
63157;SDS011;49381;49.338;8.794;2023-03-07T02:53:26;23.48;;;11.73;;
63157;SDS011;49381;49.338;8.794;2023-03-07T02:55:26;24.55;;;12.25;;
63157;SDS011;49381;49.338;8.794;2023-03-07T02:57:27;25.45;;;12.80;;
63157;SDS011;49381;49.338;8.794;2023-03-07T02:59:28;25.02;;;12.20;;
63157;SDS011;49381;49.338;8.794;2023-03-07T03:01:29;26.60;;;12.68;;
63157;SDS011;49381;49.338;8.794;2023-03-07T03:03:30;23.67;;;11.80;;
63157;SDS011;49381;49.338;8.794;2023-03-07T03:05:30;27.98;;;12.82;;
63157;SDS011;49381;49.338;8.794;2023-03-07T03:07:31;25.15;;;12.07;;
63157;SDS011;49381;49.338;8.794;2023-03-07T03:09:31;24.92;;;12.20;;
63157;SDS011;49381;49.338;8.794;2023-03-07T03:11:31;27.85;;;13.38;;
63157;SDS011;49381;49.338;8.794;2023-03-07T03:13:32;24.27;;;11.23;;
63157;SDS011;49381;49.338;8.794;2023-03-07T03:15:33;25.52;;;13.13;;
63157;SDS011;49381;49.338;8.794;2023-03-07T03:17:34;24.23;;;11.77;;
63157;SDS011;49381;49.338;8.794;2023-03-07T03:19:34;26.55;;;13.00;;
63157;SDS011;49381;49.338;8.794;2023-03-07T03:21:35;26.23;;;13.07;;
63157;SDS011;49381;49.338;8.794;2023-03-07T03:23:35;25.85;;;12.45;;
63157;SDS011;49381;49.338;8.794;2023-03-07T03:25:36;23.52;;;11.93;;
63157;SDS011;49381;49.338;8.794;2023-03-07T03:27:37;25.20;;;12.32;;
63157;SDS011;49381;49.338;8.794;2023-03-07T03:29:38;26.50;;;12.05;;
63157;SDS011;49381;49.338;8.794;2023-03-07T03:31:39;27.08;;;13.02;;
63157;SDS011;49381;49.338;8.794;2023-03-07T03:33:40;25.10;;;11.50;;
63157;SDS011;49381;49.338;8.794;2023-03-07T03:35:40;26.95;;;12.32;;
63157;SDS011;49381;49.338;8.794;2023-03-07T03:37:41;26.23;;;12.40;;
63157;SDS011;49381;49.338;8.794;2023-03-07T03:39:41;25.23;;;11.38;;
63157;SDS011;49381;49.338;8.794;2023-03-07T03:41:41;28.27;;;12.65;;
63157;SDS011;49381;49.338;8.794;2023-03-07T03:43:42;26.27;;;12.60;;
63157;SDS011;49381;49.338;8.794;2023-03-07T03:45:42;26.33;;;13.00;;
63157;SDS011;49381;49.338;8.794;2023-03-07T03:47:44;26.90;;;12.52;;
63157;SDS011;49381;49.338;8.794;2023-03-07T03:49:45;25.80;;;12.75;;
63157;SDS011;49381;49.338;8.794;2023-03-07T03:51:45;24.02;;;13.35;;
63157;SDS011;49381;49.338;8.794;2023-03-07T03:53:45;25.00;;;12.45;;
63157;SDS011;49381;49.338;8.794;2023-03-07T03:55:46;25.67;;;12.75;;
63157;SDS011;49381;49.338;8.794;2023-03-07T03:57:46;30.45;;;13.90;;
63157;SDS011;49381;49.338;8.794;2023-03-07T03:59:46;27.88;;;13.52;;
63157;SDS011;49381;49.338;8.794;2023-03-07T04:01:47;26.63;;;12.55;;
63157;SDS011;49381;49.338;8.794;2023-03-07T04:03:49;26.98;;;11.75;;
63157;SDS011;49381;49.338;8.794;2023-03-07T04:05:51;24.80;;;12.60;;
63157;SDS011;49381;49.338;8.794;2023-03-07T04:07:51;25.73;;;12.25;;
63157;SDS011;49381;49.338;8.794;2023-03-07T04:09:51;28.35;;;14.00;;
63157;SDS011;49381;49.338;8.794;2023-03-07T04:11:52;26.35;;;12.48;;
63157;SDS011;49381;49.338;8.794;2023-03-07T04:13:52;23.67;;;11.90;;
63157;SDS011;49381;49.338;8.794;2023-03-07T04:15:52;25.23;;;12.80;;
63157;SDS011;49381;49.338;8.794;2023-03-07T04:17:53;23.95;;;11.40;;
63157;SDS011;49381;49.338;8.794;2023-03-07T04:19:54;28.25;;;12.95;;
63157;SDS011;49381;49.338;8.794;2023-03-07T04:21:55;25.17;;;12.07;;
63157;SDS011;49381;49.338;8.794;2023-03-07T04:23:55;26.73;;;12.18;;
63157;SDS011;49381;49.338;8.794;2023-03-07T04:25:56;25.80;;;12.45;;
63157;SDS011;49381;49.338;8.794;2023-03-07T04:27:58;25.13;;;11.18;;
63157;SDS011;49381;49.338;8.794;2023-03-07T04:29:58;26.77;;;11.50;;
63157;SDS011;49381;49.338;8.794;2023-03-07T04:31:58;25.75;;;12.02;;
63157;SDS011;49381;49.338;8.794;2023-03-07T04:33:58;21.98;;;11.02;;
63157;SDS011;49381;49.338;8.794;2023-03-07T04:36:00;25.88;;;12.00;;
63157;SDS011;49381;49.338;8.794;2023-03-07T04:38:01;24.35;;;11.38;;
63157;SDS011;49381;49.338;8.794;2023-03-07T04:40:01;24.88;;;11.98;;
63157;SDS011;49381;49.338;8.794;2023-03-07T04:42:02;26.58;;;12.50;;
63157;SDS011;49381;49.338;8.794;2023-03-07T04:44:02;23.73;;;11.77;;
63157;SDS011;49381;49.338;8.794;2023-03-07T04:46:03;25.92;;;12.10;;
63157;SDS011;49381;49.338;8.794;2023-03-07T04:48:03;26.15;;;11.68;;
63157;SDS011;49381;49.338;8.794;2023-03-07T04:50:04;24.83;;;13.02;;
63157;SDS011;49381;49.338;8.794;2023-03-07T04:52:07;22.90;;;10.85;;
63157;SDS011;49381;49.338;8.794;2023-03-07T04:54:07;24.15;;;11.93;;
63157;SDS011;49381;49.338;8.794;2023-03-07T04:56:08;25.50;;;11.20;;
63157;SDS011;49381;49.338;8.794;2023-03-07T04:58:08;28.45;;;12.45;;
63157;SDS011;49381;49.338;8.794;2023-03-07T05:00:10;21.25;;;10.82;;
63157;SDS011;49381;49.338;8.794;2023-03-07T05:02:11;21.23;;;10.48;;
63157;SDS011;49381;49.338;8.794;2023-03-07T05:04:12;22.40;;;11.38;;
63157;SDS011;49381;49.338;8.794;2023-03-07T05:06:13;25.75;;;11.40;;
63157;SDS011;49381;49.338;8.794;2023-03-07T05:08:15;22.55;;;11.70;;
63157;SDS011;49381;49.338;8.794;2023-03-07T05:10:16;21.42;;;10.82;;
63157;SDS011;49381;49.338;8.794;2023-03-07T05:12:17;24.40;;;10.82;;
63157;SDS011;49381;49.338;8.794;2023-03-07T05:14:17;22.48;;;10.55;;
63157;SDS011;49381;49.338;8.794;2023-03-07T05:16:18;22.13;;;11.18;;
63157;SDS011;49381;49.338;8.794;2023-03-07T05:18:18;24.73;;;10.32;;
63157;SDS011;49381;49.338;8.794;2023-03-07T05:20:18;22.55;;;10.63;;
63157;SDS011;49381;49.338;8.794;2023-03-07T05:22:19;22.60;;;11.00;;
63157;SDS011;49381;49.338;8.794;2023-03-07T05:24:21;19.52;;;9.75;;
63157;SDS011;49381;49.338;8.794;2023-03-07T05:26:21;21.23;;;11.07;;
63157;SDS011;49381;49.338;8.794;2023-03-07T05:28:22;23.33;;;11.07;;
63157;SDS011;49381;49.338;8.794;2023-03-07T05:30:22;22.23;;;12.93;;
63157;SDS011;49381;49.338;8.794;2023-03-07T05:32:22;21.90;;;11.88;;
63157;SDS011;49381;49.338;8.794;2023-03-07T05:34:24;19.80;;;10.00;;
63157;SDS011;49381;49.338;8.794;2023-03-07T05:36:27;19.77;;;9.82;;
63157;SDS011;49381;49.338;8.794;2023-03-07T05:38:27;20.02;;;9.90;;
63157;SDS011;49381;49.338;8.794;2023-03-07T05:40:29;22.67;;;10.52;;
63157;SDS011;49381;49.338;8.794;2023-03-07T05:42:29;21.20;;;10.40;;
63157;SDS011;49381;49.338;8.794;2023-03-07T05:44:43;21.23;;;10.60;;
63157;SDS011;49381;49.338;8.794;2023-03-07T05:46:49;19.30;;;10.85;;
63157;SDS011;49381;49.338;8.794;2023-03-07T05:48:55;21.20;;;10.68;;
63157;SDS011;49381;49.338;8.794;2023-03-07T05:50:57;21.42;;;10.43;;
63157;SDS011;49381;49.338;8.794;2023-03-07T05:53:10;18.35;;;9.65;;
63157;SDS011;49381;49.338;8.794;2023-03-07T05:55:13;18.23;;;9.68;;
63157;SDS011;49381;49.338;8.794;2023-03-07T05:57:23;18.20;;;9.15;;
63157;SDS011;49381;49.338;8.794;2023-03-07T05:59:32;20.30;;;10.05;;
63157;SDS011;49381;49.338;8.794;2023-03-07T06:01:36;20.88;;;11.15;;
63157;SDS011;49381;49.338;8.794;2023-03-07T06:03:36;20.63;;;10.23;;
63157;SDS011;49381;49.338;8.794;2023-03-07T06:05:42;14.88;;;7.95;;
63157;SDS011;49381;49.338;8.794;2023-03-07T06:07:43;19.23;;;9.57;;
63157;SDS011;49381;49.338;8.794;2023-03-07T06:09:43;17.27;;;8.75;;
63157;SDS011;49381;49.338;8.794;2023-03-07T06:11:45;19.17;;;10.43;;
63157;SDS011;49381;49.338;8.794;2023-03-07T06:13:55;20.23;;;9.63;;
63157;SDS011;49381;49.338;8.794;2023-03-07T06:16:02;17.85;;;9.15;;
63157;SDS011;49381;49.338;8.794;2023-03-07T06:18:02;19.65;;;9.73;;
63157;SDS011;49381;49.338;8.794;2023-03-07T06:20:03;19.42;;;8.57;;
63157;SDS011;49381;49.338;8.794;2023-03-07T06:22:04;17.75;;;9.45;;
63157;SDS011;49381;49.338;8.794;2023-03-07T06:24:07;19.55;;;9.52;;
63157;SDS011;49381;49.338;8.794;2023-03-07T06:26:08;23.13;;;9.95;;
63157;SDS011;49381;49.338;8.794;2023-03-07T06:28:15;16.02;;;8.77;;
63157;SDS011;49381;49.338;8.794;2023-03-07T06:30:16;21.35;;;9.15;;
63157;SDS011;49381;49.338;8.794;2023-03-07T06:32:17;17.40;;;8.57;;
63157;SDS011;49381;49.338;8.794;2023-03-07T06:34:23;18.60;;;8.80;;
63157;SDS011;49381;49.338;8.794;2023-03-07T06:36:30;16.83;;;8.55;;
63157;SDS011;49381;49.338;8.794;2023-03-07T06:38:36;21.58;;;9.85;;
63157;SDS011;49381;49.338;8.794;2023-03-07T06:40:37;19.92;;;9.13;;
63157;SDS011;49381;49.338;8.794;2023-03-07T06:42:53;16.35;;;8.73;;
63157;SDS011;49381;49.338;8.794;2023-03-07T06:44:56;15.20;;;8.52;;
63157;SDS011;49381;49.338;8.794;2023-03-07T06:47:03;18.38;;;10.25;;
63157;SDS011;49381;49.338;8.794;2023-03-07T06:49:10;20.65;;;9.57;;
63157;SDS011;49381;49.338;8.794;2023-03-07T06:51:15;17.75;;;9.63;;
63157;SDS011;49381;49.338;8.794;2023-03-07T06:53:15;17.65;;;8.88;;
63157;SDS011;49381;49.338;8.794;2023-03-07T06:55:16;18.55;;;9.13;;
63157;SDS011;49381;49.338;8.794;2023-03-07T06:57:17;19.88;;;9.45;;
63157;SDS011;49381;49.338;8.794;2023-03-07T06:59:31;16.67;;;8.77;;
63157;SDS011;49381;49.338;8.794;2023-03-07T07:01:32;17.15;;;8.43;;
63157;SDS011;49381;49.338;8.794;2023-03-07T07:03:33;16.55;;;9.00;;
63157;SDS011;49381;49.338;8.794;2023-03-07T07:05:34;17.60;;;8.73;;
63157;SDS011;49381;49.338;8.794;2023-03-07T07:07:36;17.83;;;9.38;;
63157;SDS011;49381;49.338;8.794;2023-03-07T07:09:36;16.58;;;8.23;;
63157;SDS011;49381;49.338;8.794;2023-03-07T07:11:37;15.95;;;8.57;;
63157;SDS011;49381;49.338;8.794;2023-03-07T07:13:37;18.90;;;9.50;;
63157;SDS011;49381;49.338;8.794;2023-03-07T07:15:37;17.90;;;9.60;;
63157;SDS011;49381;49.338;8.794;2023-03-07T07:17:38;16.35;;;8.00;;
63157;SDS011;49381;49.338;8.794;2023-03-07T07:19:40;17.67;;;8.88;;
63157;SDS011;49381;49.338;8.794;2023-03-07T07:21:40;16.77;;;8.63;;
63157;SDS011;49381;49.338;8.794;2023-03-07T07:23:42;18.30;;;8.85;;
63157;SDS011;49381;49.338;8.794;2023-03-07T07:25:49;17.25;;;8.45;;
63157;SDS011;49381;49.338;8.794;2023-03-07T07:27:49;18.65;;;9.25;;
63157;SDS011;49381;49.338;8.794;2023-03-07T07:29:52;16.48;;;8.23;;
63157;SDS011;49381;49.338;8.794;2023-03-07T07:32:15;19.80;;;8.52;;
63157;SDS011;49381;49.338;8.794;2023-03-07T07:34:24;16.42;;;8.18;;
63157;SDS011;49381;49.338;8.794;2023-03-07T07:38:57;16.40;;;8.30;;
63157;SDS011;49381;49.338;8.794;2023-03-07T07:41:03;16.50;;;9.38;;
63157;SDS011;49381;49.338;8.794;2023-03-07T07:43:03;17.08;;;9.73;;
63157;SDS011;49381;49.338;8.794;2023-03-07T07:45:09;17.15;;;9.18;;
63157;SDS011;49381;49.338;8.794;2023-03-07T07:47:15;18.60;;;9.07;;
63157;SDS011;49381;49.338;8.794;2023-03-07T07:49:16;21.85;;;9.27;;
63157;SDS011;49381;49.338;8.794;2023-03-07T07:51:16;18.08;;;8.77;;
63157;SDS011;49381;49.338;8.794;2023-03-07T07:55:44;16.70;;;8.38;;
63157;SDS011;49381;49.338;8.794;2023-03-07T07:57:49;18.42;;;8.38;;
63157;SDS011;49381;49.338;8.794;2023-03-07T07:59:52;21.10;;;9.38;;
63157;SDS011;49381;49.338;8.794;2023-03-07T08:02:27;15.60;;;7.60;;
63157;SDS011;49381;49.338;8.794;2023-03-07T08:04:25;19.23;;;9.63;;
63157;SDS011;49381;49.338;8.794;2023-03-07T08:06:45;17.48;;;9.43;;
63157;SDS011;49381;49.338;8.794;2023-03-07T08:08:55;15.95;;;8.30;;
63157;SDS011;49381;49.338;8.794;2023-03-07T08:11:09;16.67;;;7.80;;
63157;SDS011;49381;49.338;8.794;2023-03-07T08:13:10;16.23;;;7.95;;
63157;SDS011;49381;49.338;8.794;2023-03-07T08:15:27;21.25;;;8.68;;
63157;SDS011;49381;49.338;8.794;2023-03-07T08:17:34;16.85;;;8.68;;
63157;SDS011;49381;49.338;8.794;2023-03-07T08:19:51;14.95;;;7.88;;
63157;SDS011;49381;49.338;8.794;2023-03-07T08:21:58;15.85;;;8.65;;
63157;SDS011;49381;49.338;8.794;2023-03-07T08:24:01;15.40;;;8.20;;
63157;SDS011;49381;49.338;8.794;2023-03-07T08:26:15;16.15;;;8.35;;
63157;SDS011;49381;49.338;8.794;2023-03-07T08:28:17;17.33;;;7.50;;
63157;SDS011;49381;49.338;8.794;2023-03-07T08:30:26;15.75;;;8.25;;
63157;SDS011;49381;49.338;8.794;2023-03-07T08:32:36;15.15;;;7.97;;
63157;SDS011;49381;49.338;8.794;2023-03-07T08:34:41;15.68;;;8.05;;
63157;SDS011;49381;49.338;8.794;2023-03-07T08:36:44;17.75;;;8.05;;
63157;SDS011;49381;49.338;8.794;2023-03-07T08:38:47;17.92;;;9.82;;
63157;SDS011;49381;49.338;8.794;2023-03-07T08:41:08;16.08;;;8.57;;
63157;SDS011;49381;49.338;8.794;2023-03-07T08:43:09;17.83;;;7.80;;
63157;SDS011;49381;49.338;8.794;2023-03-07T08:45:12;15.98;;;8.10;;
63157;SDS011;49381;49.338;8.794;2023-03-07T08:47:13;15.70;;;8.07;;
63157;SDS011;49381;49.338;8.794;2023-03-07T08:49:13;16.63;;;8.27;;
63157;SDS011;49381;49.338;8.794;2023-03-07T08:51:14;12.63;;;7.30;;
63157;SDS011;49381;49.338;8.794;2023-03-07T08:53:23;15.57;;;7.95;;
63157;SDS011;49381;49.338;8.794;2023-03-07T08:55:25;14.75;;;7.32;;
63157;SDS011;49381;49.338;8.794;2023-03-07T08:57:30;16.75;;;7.65;;
63157;SDS011;49381;49.338;8.794;2023-03-07T08:59:30;13.65;;;6.50;;
63157;SDS011;49381;49.338;8.794;2023-03-07T09:01:34;16.50;;;7.38;;
63157;SDS011;49381;49.338;8.794;2023-03-07T09:03:36;13.90;;;6.75;;
63157;SDS011;49381;49.338;8.794;2023-03-07T09:05:38;14.68;;;6.50;;
63157;SDS011;49381;49.338;8.794;2023-03-07T09:07:47;12.77;;;6.32;;
63157;SDS011;49381;49.338;8.794;2023-03-07T09:09:51;13.73;;;6.57;;
63157;SDS011;49381;49.338;8.794;2023-03-07T09:11:59;13.10;;;6.65;;
63157;SDS011;49381;49.338;8.794;2023-03-07T09:14:09;13.25;;;7.22;;
63157;SDS011;49381;49.338;8.794;2023-03-07T09:16:11;14.63;;;6.82;;
63157;SDS011;49381;49.338;8.794;2023-03-07T09:18:12;13.65;;;7.28;;
63157;SDS011;49381;49.338;8.794;2023-03-07T09:20:15;12.93;;;6.40;;
63157;SDS011;49381;49.338;8.794;2023-03-07T09:22:21;15.65;;;7.05;;
63157;SDS011;49381;49.338;8.794;2023-03-07T09:24:24;15.45;;;6.72;;
63157;SDS011;49381;49.338;8.794;2023-03-07T09:26:38;12.40;;;6.18;;
63157;SDS011;49381;49.338;8.794;2023-03-07T09:28:41;14.52;;;6.95;;
63157;SDS011;49381;49.338;8.794;2023-03-07T09:30:47;14.25;;;7.22;;
63157;SDS011;49381;49.338;8.794;2023-03-07T09:32:53;12.13;;;7.05;;
63157;SDS011;49381;49.338;8.794;2023-03-07T09:34:54;12.65;;;6.03;;
63157;SDS011;49381;49.338;8.794;2023-03-07T09:36:54;11.88;;;6.68;;
63157;SDS011;49381;49.338;8.794;2023-03-07T09:38:57;15.02;;;6.53;;
63157;SDS011;49381;49.338;8.794;2023-03-07T09:41:05;12.40;;;6.55;;
63157;SDS011;49381;49.338;8.794;2023-03-07T09:43:39;12.63;;;6.20;;
63157;SDS011;49381;49.338;8.794;2023-03-07T09:45:55;12.73;;;6.63;;
63157;SDS011;49381;49.338;8.794;2023-03-07T09:50:38;12.93;;;6.65;;
63157;SDS011;49381;49.338;8.794;2023-03-07T09:52:49;12.75;;;6.03;;
63157;SDS011;49381;49.338;8.794;2023-03-07T09:55:08;13.65;;;6.88;;
63157;SDS011;49381;49.338;8.794;2023-03-07T09:57:13;12.48;;;6.88;;
63157;SDS011;49381;49.338;8.794;2023-03-07T09:59:32;14.63;;;7.30;;
63157;SDS011;49381;49.338;8.794;2023-03-07T10:03:58;13.60;;;7.38;;
63157;SDS011;49381;49.338;8.794;2023-03-07T10:06:04;12.52;;;6.85;;
63157;SDS011;49381;49.338;8.794;2023-03-07T10:08:18;10.93;;;5.97;;
63157;SDS011;49381;49.338;8.794;2023-03-07T10:10:30;11.23;;;6.05;;
63157;SDS011;49381;49.338;8.794;2023-03-07T10:12:43;12.68;;;6.50;;
63157;SDS011;49381;49.338;8.794;2023-03-07T10:15:00;15.88;;;8.38;;
63157;SDS011;49381;49.338;8.794;2023-03-07T10:17:15;15.38;;;7.00;;
63157;SDS011;49381;49.338;8.794;2023-03-07T10:19:27;14.98;;;6.40;;
63157;SDS011;49381;49.338;8.794;2023-03-07T10:21:42;15.63;;;6.85;;
63157;SDS011;49381;49.338;8.794;2023-03-07T10:23:59;14.50;;;6.82;;
63157;SDS011;49381;49.338;8.794;2023-03-07T10:26:28;12.45;;;6.43;;
63157;SDS011;49381;49.338;8.794;2023-03-07T10:28:33;15.95;;;6.90;;
63157;SDS011;49381;49.338;8.794;2023-03-07T10:30:36;12.40;;;6.40;;
63157;SDS011;49381;49.338;8.794;2023-03-07T10:32:39;11.18;;;5.90;;
63157;SDS011;49381;49.338;8.794;2023-03-07T10:35:00;10.88;;;5.97;;
63157;SDS011;49381;49.338;8.794;2023-03-07T10:37:12;15.93;;;6.95;;
63157;SDS011;49381;49.338;8.794;2023-03-07T10:39:22;13.38;;;6.85;;
63157;SDS011;49381;49.338;8.794;2023-03-07T10:41:27;12.55;;;6.15;;
63157;SDS011;49381;49.338;8.794;2023-03-07T10:43:37;11.52;;;5.88;;
63157;SDS011;49381;49.338;8.794;2023-03-07T10:45:38;12.93;;;6.32;;
63157;SDS011;49381;49.338;8.794;2023-03-07T10:47:40;16.30;;;6.53;;
63157;SDS011;49381;49.338;8.794;2023-03-07T10:49:48;14.63;;;6.75;;
63157;SDS011;49381;49.338;8.794;2023-03-07T10:52:01;11.98;;;6.35;;
63157;SDS011;49381;49.338;8.794;2023-03-07T10:54:11;12.35;;;6.43;;
63157;SDS011;49381;49.338;8.794;2023-03-07T10:56:14;11.13;;;5.80;;
63157;SDS011;49381;49.338;8.794;2023-03-07T10:58:17;10.80;;;6.15;;
63157;SDS011;49381;49.338;8.794;2023-03-07T11:00:28;13.43;;;6.22;;
63157;SDS011;49381;49.338;8.794;2023-03-07T11:02:33;13.75;;;6.40;;
63157;SDS011;49381;49.338;8.794;2023-03-07T11:04:44;14.27;;;6.75;;
63157;SDS011;49381;49.338;8.794;2023-03-07T11:06:50;11.85;;;6.45;;
63157;SDS011;49381;49.338;8.794;2023-03-07T11:08:57;14.73;;;7.00;;
63157;SDS011;49381;49.338;8.794;2023-03-07T11:11:13;11.43;;;6.15;;
63157;SDS011;49381;49.338;8.794;2023-03-07T11:13:38;13.02;;;7.10;;
63157;SDS011;49381;49.338;8.794;2023-03-07T11:15:38;11.43;;;6.20;;
63157;SDS011;49381;49.338;8.794;2023-03-07T11:17:39;13.55;;;6.93;;
63157;SDS011;49381;49.338;8.794;2023-03-07T11:19:45;12.70;;;6.18;;
63157;SDS011;49381;49.338;8.794;2023-03-07T11:21:55;10.20;;;5.75;;
63157;SDS011;49381;49.338;8.794;2023-03-07T11:24:19;10.93;;;5.35;;
63157;SDS011;49381;49.338;8.794;2023-03-07T11:26:24;13.27;;;6.30;;
63157;SDS011;49381;49.338;8.794;2023-03-07T11:28:29;10.48;;;6.00;;
63157;SDS011;49381;49.338;8.794;2023-03-07T11:30:32;10.02;;;4.75;;
63157;SDS011;49381;49.338;8.794;2023-03-07T11:32:41;10.63;;;5.93;;
63157;SDS011;49381;49.338;8.794;2023-03-07T11:34:48;12.30;;;6.30;;
63157;SDS011;49381;49.338;8.794;2023-03-07T11:36:59;11.18;;;6.15;;
63157;SDS011;49381;49.338;8.794;2023-03-07T11:39:09;11.90;;;6.30;;
63157;SDS011;49381;49.338;8.794;2023-03-07T11:41:18;12.32;;;6.63;;
63157;SDS011;49381;49.338;8.794;2023-03-07T11:43:37;11.90;;;6.32;;
63157;SDS011;49381;49.338;8.794;2023-03-07T11:45:45;12.27;;;6.47;;
63157;SDS011;49381;49.338;8.794;2023-03-07T11:47:55;14.35;;;7.00;;
63157;SDS011;49381;49.338;8.794;2023-03-07T11:50:08;13.63;;;7.05;;
63157;SDS011;49381;49.338;8.794;2023-03-07T11:52:24;13.48;;;6.75;;
63157;SDS011;49381;49.338;8.794;2023-03-07T11:54:44;11.60;;;6.03;;
63157;SDS011;49381;49.338;8.794;2023-03-07T11:56:53;13.60;;;6.43;;
63157;SDS011;49381;49.338;8.794;2023-03-07T11:59:16;12.63;;;6.40;;
63157;SDS011;49381;49.338;8.794;2023-03-07T12:01:31;18.92;;;6.63;;
63157;SDS011;49381;49.338;8.794;2023-03-07T12:03:45;12.85;;;6.43;;
63157;SDS011;49381;49.338;8.794;2023-03-07T12:06:06;15.30;;;6.72;;
63157;SDS011;49381;49.338;8.794;2023-03-07T12:10:51;14.27;;;6.25;;
63157;SDS011;49381;49.338;8.794;2023-03-07T12:13:22;10.90;;;5.43;;
63157;SDS011;49381;49.338;8.794;2023-03-07T12:16:03;12.05;;;6.75;;
63157;SDS011;49381;49.338;8.794;2023-03-07T12:18:23;13.27;;;6.22;;
63157;SDS011;49381;49.338;8.794;2023-03-07T12:21:01;10.15;;;5.40;;
63157;SDS011;49381;49.338;8.794;2023-03-07T12:23:27;15.13;;;6.07;;
63157;SDS011;49381;49.338;8.794;2023-03-07T12:25:43;13.27;;;7.63;;
63157;SDS011;49381;49.338;8.794;2023-03-07T12:27:48;12.13;;;6.97;;
63157;SDS011;49381;49.338;8.794;2023-03-07T12:30:00;11.15;;;5.88;;